createdAt,value
2023-03-18T06:20:04.521Z,1002.52
2023-03-18T06:30:04.702Z,1002.54
2023-03-18T06:40:04.511Z,1002.42
2023-03-18T06:50:04.502Z,1002.53
2023-03-18T07:00:04.696Z,1002.84
2023-03-18T07:10:04.687Z,1002.93
2023-03-18T07:20:04.669Z,1003.04
2023-03-18T07:30:04.705Z,1003.23
2023-03-18T07:40:04.777Z,1003.24
2023-03-18T07:50:04.741Z,1003.49
2023-03-18T08:00:04.543Z,1003.54
2023-03-18T08:10:04.564Z,1003.51
2023-03-18T08:20:04.832Z,1003.69
2023-03-18T08:30:04.693Z,1003.78
2023-03-18T08:40:04.655Z,1003.78
2023-03-18T08:50:05.052Z,1003.83
2023-03-18T09:00:05.005Z,1004.01
2023-03-18T09:10:05.073Z,1003.92
2023-03-18T09:20:05.030Z,1003.84
2023-03-18T09:30:06.883Z,1003.84
2023-03-18T09:40:05.165Z,1003.91
2023-03-18T09:50:05.226Z,1003.96
2023-03-18T10:00:05.293Z,1004.11
2023-03-18T10:10:05.157Z,1004.26
2023-03-18T10:20:05.230Z,1004.26
2023-03-18T10:30:05.183Z,1004.22
2023-03-18T10:40:05.456Z,1004.26
2023-03-18T10:50:05.321Z,1004.23
2023-03-18T11:00:05.180Z,1004.14
2023-03-18T11:10:05.256Z,1004.13
2023-03-18T11:20:05.266Z,1004.24
2023-03-18T11:30:05.127Z,1004.29
2023-03-18T11:40:05.248Z,1004.21
2023-03-18T11:50:05.102Z,1004.25
2023-03-18T12:00:05.270Z,1004.34
2023-03-18T12:10:05.341Z,1004.40
2023-03-18T12:20:05.138Z,1004.51
2023-03-18T12:30:05.171Z,1004.34
2023-03-18T12:40:05.065Z,1004.38
2023-03-18T12:50:05.273Z,1004.32
2023-03-18T13:00:05.161Z,1004.23
2023-03-18T13:10:05.132Z,1004.23
2023-03-18T13:20:05.186Z,1004.20
2023-03-18T13:30:05.271Z,1004.24
2023-03-18T13:40:05.291Z,1004.25
2023-03-18T13:50:05.289Z,1004.35
2023-03-18T14:00:05.243Z,1004.23
2023-03-18T14:10:18.535Z,1004.20
2023-03-18T14:20:05.124Z,1004.12
2023-03-18T14:30:07.315Z,1004.06
2023-03-18T14:40:05.212Z,1004.02
2023-03-18T14:50:05.280Z,1004.10
2023-03-18T15:00:05.258Z,1004.04
2023-03-18T15:10:05.249Z,1004.10
2023-03-18T15:20:05.379Z,1004.03
2023-03-18T15:30:05.468Z,1004.08
2023-03-18T15:40:05.300Z,1003.99
2023-03-18T15:50:05.224Z,1004.15
2023-03-18T16:00:05.436Z,1004.07
2023-03-18T16:10:05.301Z,1004.11
2023-03-18T16:20:05.573Z,1004.16
2023-03-18T16:30:05.567Z,1004.16
2023-03-18T16:40:05.397Z,1004.15
2023-03-18T16:50:05.347Z,1004.20
2023-03-18T17:00:05.609Z,1004.38
2023-03-18T17:10:05.622Z,1004.35
2023-03-18T17:20:05.578Z,1004.66
2023-03-18T17:30:05.708Z,1004.67
2023-03-18T17:40:05.728Z,1004.72
2023-03-18T17:50:05.537Z,1004.72
2023-03-18T18:00:05.507Z,1004.77
2023-03-18T18:10:05.676Z,1004.81
2023-03-18T18:20:05.594Z,1004.78
2023-03-18T18:30:05.589Z,1004.82
2023-03-18T18:40:05.786Z,1004.73
2023-03-18T18:50:05.873Z,1004.89
2023-03-18T19:00:05.908Z,1004.95
2023-03-18T19:10:06.395Z,1004.83
2023-03-18T19:20:06.328Z,1005.02
